sensor_id;sensor_type;location;lat;lon;timestamp;P1;durP1;ratioP1;P2;durP2;ratioP2
23802;SDS011;12082;51.786;6.018;2024-02-16T00:00:11;4.73;;;3.33;;
23802;SDS011;12082;51.786;6.018;2024-02-16T00:02:38;6.40;;;2.67;;
23802;SDS011;12082;51.786;6.018;2024-02-16T00:05:05;5.63;;;2.47;;
23802;SDS011;12082;51.786;6.018;2024-02-16T00:07:32;5.23;;;3.20;;
23802;SDS011;12082;51.786;6.018;2024-02-16T00:10:02;5.93;;;2.60;;
23802;SDS011;12082;51.786;6.018;2024-02-16T00:12:29;5.70;;;2.53;;
23802;SDS011;12082;51.786;6.018;2024-02-16T00:14:55;3.43;;;2.40;;
23802;SDS011;12082;51.786;6.018;2024-02-16T00:17:21;6.17;;;2.77;;
23802;SDS011;12082;51.786;6.018;2024-02-16T00:19:47;3.43;;;2.50;;
23802;SDS011;12082;51.786;6.018;2024-02-16T00:22:12;6.37;;;3.43;;
23802;SDS011;12082;51.786;6.018;2024-02-16T00:24:38;5.97;;;2.60;;
23802;SDS011;12082;51.786;6.018;2024-02-16T00:27:04;4.30;;;2.63;;
23802;SDS011;12082;51.786;6.018;2024-02-16T00:29:32;4.03;;;2.23;;
23802;SDS011;12082;51.786;6.018;2024-02-16T00:31:58;8.60;;;2.40;;
23802;SDS011;12082;51.786;6.018;2024-02-16T00:34:26;4.67;;;2.30;;
23802;SDS011;12082;51.786;6.018;2024-02-16T00:36:52;5.07;;;2.70;;
23802;SDS011;12082;51.786;6.018;2024-02-16T00:39:18;3.17;;;2.63;;
23802;SDS011;12082;51.786;6.018;2024-02-16T00:41:43;6.83;;;2.80;;
23802;SDS011;12082;51.786;6.018;2024-02-16T00:44:11;3.63;;;2.37;;
23802;SDS011;12082;51.786;6.018;2024-02-16T00:46:37;5.33;;;2.40;;
23802;SDS011;12082;51.786;6.018;2024-02-16T00:49:02;6.07;;;2.47;;
23802;SDS011;12082;51.786;6.018;2024-02-16T00:51:28;5.13;;;2.30;;
23802;SDS011;12082;51.786;6.018;2024-02-16T00:53:54;4.73;;;2.60;;
23802;SDS011;12082;51.786;6.018;2024-02-16T00:56:20;4.93;;;2.30;;
23802;SDS011;12082;51.786;6.018;2024-02-16T00:58:46;7.03;;;2.60;;
23802;SDS011;12082;51.786;6.018;2024-02-16T01:01:11;4.17;;;2.43;;
23802;SDS011;12082;51.786;6.018;2024-02-16T01:03:40;7.30;;;2.80;;
23802;SDS011;12082;51.786;6.018;2024-02-16T01:06:06;3.93;;;2.43;;
23802;SDS011;12082;51.786;6.018;2024-02-16T01:08:33;4.27;;;2.70;;
23802;SDS011;12082;51.786;6.018;2024-02-16T01:10:59;5.70;;;2.50;;
23802;SDS011;12082;51.786;6.018;2024-02-16T01:13:25;3.97;;;2.17;;
23802;SDS011;12082;51.786;6.018;2024-02-16T01:15:50;3.37;;;2.10;;
23802;SDS011;12082;51.786;6.018;2024-02-16T01:18:17;5.37;;;2.57;;
23802;SDS011;12082;51.786;6.018;2024-02-16T01:20:42;6.63;;;2.27;;
23802;SDS011;12082;51.786;6.018;2024-02-16T01:23:08;3.63;;;2.20;;
23802;SDS011;12082;51.786;6.018;2024-02-16T01:25:34;6.73;;;2.60;;
23802;SDS011;12082;51.786;6.018;2024-02-16T01:27:59;5.83;;;2.23;;
23802;SDS011;12082;51.786;6.018;2024-02-16T01:30:25;2.53;;;1.93;;
23802;SDS011;12082;51.786;6.018;2024-02-16T01:32:50;5.03;;;2.43;;
23802;SDS011;12082;51.786;6.018;2024-02-16T01:35:16;4.10;;;2.40;;
23802;SDS011;12082;51.786;6.018;2024-02-16T01:37:42;6.70;;;2.73;;
23802;SDS011;12082;51.786;6.018;2024-02-16T01:40:10;4.50;;;2.40;;
23802;SDS011;12082;51.786;6.018;2024-02-16T01:42:40;4.30;;;2.30;;
23802;SDS011;12082;51.786;6.018;2024-02-16T01:45:07;4.20;;;2.30;;
23802;SDS011;12082;51.786;6.018;2024-02-16T01:47:34;3.67;;;2.47;;
23802;SDS011;12082;51.786;6.018;2024-02-16T01:50:01;3.00;;;2.33;;
23802;SDS011;12082;51.786;6.018;2024-02-16T01:52:27;3.27;;;1.93;;
23802;SDS011;12082;51.786;6.018;2024-02-16T01:54:55;2.77;;;1.87;;
23802;SDS011;12082;51.786;6.018;2024-02-16T01:57:21;7.03;;;2.90;;
23802;SDS011;12082;51.786;6.018;2024-02-16T01:59:47;3.87;;;2.03;;
23802;SDS011;12082;51.786;6.018;2024-02-16T02:02:13;5.90;;;2.37;;
23802;SDS011;12082;51.786;6.018;2024-02-16T02:04:38;4.03;;;2.30;;
23802;SDS011;12082;51.786;6.018;2024-02-16T02:07:14;3.97;;;2.37;;
23802;SDS011;12082;51.786;6.018;2024-02-16T02:09:40;5.23;;;2.50;;
23802;SDS011;12082;51.786;6.018;2024-02-16T02:12:07;5.80;;;2.30;;
23802;SDS011;12082;51.786;6.018;2024-02-16T02:14:34;6.23;;;2.47;;
23802;SDS011;12082;51.786;6.018;2024-02-16T02:17:00;4.33;;;2.60;;
23802;SDS011;12082;51.786;6.018;2024-02-16T02:19:26;4.20;;;2.00;;
23802;SDS011;12082;51.786;6.018;2024-02-16T02:21:52;3.93;;;2.57;;
23802;SDS011;12082;51.786;6.018;2024-02-16T02:24:17;3.27;;;2.30;;
23802;SDS011;12082;51.786;6.018;2024-02-16T02:26:43;4.93;;;2.67;;
23802;SDS011;12082;51.786;6.018;2024-02-16T02:29:09;3.40;;;2.27;;
23802;SDS011;12082;51.786;6.018;2024-02-16T02:31:34;5.03;;;2.23;;
23802;SDS011;12082;51.786;6.018;2024-02-16T02:34:00;5.43;;;2.43;;
23802;SDS011;12082;51.786;6.018;2024-02-16T02:36:26;5.13;;;2.20;;
23802;SDS011;12082;51.786;6.018;2024-02-16T02:38:51;3.73;;;2.33;;
23802;SDS011;12082;51.786;6.018;2024-02-16T02:41:17;4.53;;;2.50;;
23802;SDS011;12082;51.786;6.018;2024-02-16T02:43:44;6.60;;;2.20;;
23802;SDS011;12082;51.786;6.018;2024-02-16T02:46:14;9.07;;;2.30;;
23802;SDS011;12082;51.786;6.018;2024-02-16T02:48:41;4.20;;;2.17;;
23802;SDS011;12082;51.786;6.018;2024-02-16T02:51:08;4.30;;;2.27;;
23802;SDS011;12082;51.786;6.018;2024-02-16T02:53:34;4.67;;;2.60;;
23802;SDS011;12082;51.786;6.018;2024-02-16T02:56:00;3.03;;;2.03;;
23802;SDS011;12082;51.786;6.018;2024-02-16T02:58:26;3.97;;;2.00;;
23802;SDS011;12082;51.786;6.018;2024-02-16T03:00:53;3.47;;;2.17;;
23802;SDS011;12082;51.786;6.018;2024-02-16T03:03:19;3.17;;;2.30;;
23802;SDS011;12082;51.786;6.018;2024-02-16T03:05:45;3.37;;;2.50;;
23802;SDS011;12082;51.786;6.018;2024-02-16T03:08:11;5.33;;;2.33;;
23802;SDS011;12082;51.786;6.018;2024-02-16T03:10:36;8.40;;;2.67;;
23802;SDS011;12082;51.786;6.018;2024-02-16T03:13:03;3.83;;;2.27;;
23802;SDS011;12082;51.786;6.018;2024-02-16T03:15:29;4.17;;;2.47;;
23802;SDS011;12082;51.786;6.018;2024-02-16T03:17:55;4.63;;;2.60;;
23802;SDS011;12082;51.786;6.018;2024-02-16T03:20:20;5.43;;;2.10;;
23802;SDS011;12082;51.786;6.018;2024-02-16T03:22:46;5.93;;;2.67;;
23802;SDS011;12082;51.786;6.018;2024-02-16T03:25:13;7.60;;;2.20;;
23802;SDS011;12082;51.786;6.018;2024-02-16T03:27:39;3.17;;;2.43;;
23802;SDS011;12082;51.786;6.018;2024-02-16T03:30:06;3.60;;;2.20;;
23802;SDS011;12082;51.786;6.018;2024-02-16T03:32:33;5.80;;;2.50;;
23802;SDS011;12082;51.786;6.018;2024-02-16T03:34:58;4.70;;;2.47;;
23802;SDS011;12082;51.786;6.018;2024-02-16T03:37:24;3.57;;;2.60;;
23802;SDS011;12082;51.786;6.018;2024-02-16T03:39:50;5.50;;;2.83;;
23802;SDS011;12082;51.786;6.018;2024-02-16T03:42:16;8.00;;;2.40;;
23802;SDS011;12082;51.786;6.018;2024-02-16T03:44:43;3.40;;;2.30;;
23802;SDS011;12082;51.786;6.018;2024-02-16T03:47:09;3.43;;;2.00;;
23802;SDS011;12082;51.786;6.018;2024-02-16T03:49:34;4.20;;;2.27;;
23802;SDS011;12082;51.786;6.018;2024-02-16T03:52:00;2.70;;;2.40;;
23802;SDS011;12082;51.786;6.018;2024-02-16T03:54:26;3.37;;;2.27;;
23802;SDS011;12082;51.786;6.018;2024-02-16T03:56:55;5.80;;;2.57;;
23802;SDS011;12082;51.786;6.018;2024-02-16T03:59:21;5.07;;;2.47;;
23802;SDS011;12082;51.786;6.018;2024-02-16T04:01:48;5.73;;;2.47;;
23802;SDS011;12082;51.786;6.018;2024-02-16T04:04:14;4.77;;;2.57;;
23802;SDS011;12082;51.786;6.018;2024-02-16T04:06:40;3.43;;;2.37;;
23802;SDS011;12082;51.786;6.018;2024-02-16T04:09:06;3.37;;;2.50;;
23802;SDS011;12082;51.786;6.018;2024-02-16T04:11:32;3.30;;;2.30;;
23802;SDS011;12082;51.786;6.018;2024-02-16T04:13:58;5.03;;;2.60;;
23802;SDS011;12082;51.786;6.018;2024-02-16T04:16:23;5.20;;;2.67;;
23802;SDS011;12082;51.786;6.018;2024-02-16T04:18:50;8.03;;;2.77;;
23802;SDS011;12082;51.786;6.018;2024-02-16T04:21:20;4.70;;;2.43;;
23802;SDS011;12082;51.786;6.018;2024-02-16T04:23:45;3.80;;;2.40;;
23802;SDS011;12082;51.786;6.018;2024-02-16T04:26:11;6.37;;;2.50;;
23802;SDS011;12082;51.786;6.018;2024-02-16T04:28:37;4.00;;;2.53;;
23802;SDS011;12082;51.786;6.018;2024-02-16T04:31:03;3.50;;;2.60;;
23802;SDS011;12082;51.786;6.018;2024-02-16T04:33:28;2.70;;;2.17;;
23802;SDS011;12082;51.786;6.018;2024-02-16T04:35:54;5.53;;;2.27;;
23802;SDS011;12082;51.786;6.018;2024-02-16T04:38:19;8.03;;;2.63;;
23802;SDS011;12082;51.786;6.018;2024-02-16T04:40:45;5.37;;;2.50;;
23802;SDS011;12082;51.786;6.018;2024-02-16T04:43:11;2.80;;;2.40;;
23802;SDS011;12082;51.786;6.018;2024-02-16T04:45:36;3.70;;;2.50;;
23802;SDS011;12082;51.786;6.018;2024-02-16T04:48:03;3.70;;;2.50;;
23802;SDS011;12082;51.786;6.018;2024-02-16T04:50:30;3.93;;;2.73;;
23802;SDS011;12082;51.786;6.018;2024-02-16T04:52:57;4.63;;;2.17;;
23802;SDS011;12082;51.786;6.018;2024-02-16T04:55:22;6.57;;;2.30;;
23802;SDS011;12082;51.786;6.018;2024-02-16T04:57:48;6.13;;;3.20;;
23802;SDS011;12082;51.786;6.018;2024-02-16T05:00:14;3.43;;;2.27;;
23802;SDS011;12082;51.786;6.018;2024-02-16T05:02:40;7.53;;;2.20;;
23802;SDS011;12082;51.786;6.018;2024-02-16T05:05:06;7.00;;;2.70;;
23802;SDS011;12082;51.786;6.018;2024-02-16T05:07:32;5.10;;;2.50;;
23802;SDS011;12082;51.786;6.018;2024-02-16T05:09:58;5.57;;;2.50;;
23802;SDS011;12082;51.786;6.018;2024-02-16T05:12:24;5.60;;;2.33;;
23802;SDS011;12082;51.786;6.018;2024-02-16T05:14:50;5.17;;;2.23;;
23802;SDS011;12082;51.786;6.018;2024-02-16T05:17:16;5.17;;;2.40;;
23802;SDS011;12082;51.786;6.018;2024-02-16T05:19:41;4.83;;;2.43;;
23802;SDS011;12082;51.786;6.018;2024-02-16T05:22:07;6.00;;;2.57;;
23802;SDS011;12082;51.786;6.018;2024-02-16T05:24:33;4.17;;;2.50;;
23802;SDS011;12082;51.786;6.018;2024-02-16T05:26:58;7.77;;;2.80;;
23802;SDS011;12082;51.786;6.018;2024-02-16T05:29:25;5.17;;;2.47;;
23802;SDS011;12082;51.786;6.018;2024-02-16T05:31:52;4.80;;;2.80;;
23802;SDS011;12082;51.786;6.018;2024-02-16T05:34:17;7.23;;;2.40;;
23802;SDS011;12082;51.786;6.018;2024-02-16T05:36:43;2.90;;;2.60;;
23802;SDS011;12082;51.786;6.018;2024-02-16T05:39:09;2.77;;;2.20;;
23802;SDS011;12082;51.786;6.018;2024-02-16T05:41:45;2.70;;;2.20;;
23802;SDS011;12082;51.786;6.018;2024-02-16T05:44:12;4.00;;;2.80;;
23802;SDS011;12082;51.786;6.018;2024-02-16T05:46:37;6.47;;;2.80;;
23802;SDS011;12082;51.786;6.018;2024-02-16T05:49:06;5.23;;;2.50;;
23802;SDS011;12082;51.786;6.018;2024-02-16T05:51:35;2.60;;;2.40;;
23802;SDS011;12082;51.786;6.018;2024-02-16T05:54:01;3.60;;;2.77;;
23802;SDS011;12082;51.786;6.018;2024-02-16T05:56:27;6.17;;;2.40;;
23802;SDS011;12082;51.786;6.018;2024-02-16T05:58:53;4.00;;;2.77;;
23802;SDS011;12082;51.786;6.018;2024-02-16T06:01:19;4.73;;;2.53;;
23802;SDS011;12082;51.786;6.018;2024-02-16T06:03:45;7.47;;;2.73;;
23802;SDS011;12082;51.786;6.018;2024-02-16T06:06:10;10.17;;;2.90;;
23802;SDS011;12082;51.786;6.018;2024-02-16T06:08:36;4.53;;;2.47;;
23802;SDS011;12082;51.786;6.018;2024-02-16T06:11:01;4.23;;;2.63;;
23802;SDS011;12082;51.786;6.018;2024-02-16T06:13:27;4.40;;;2.60;;
23802;SDS011;12082;51.786;6.018;2024-02-16T06:15:54;2.97;;;2.60;;
23802;SDS011;12082;51.786;6.018;2024-02-16T06:18:20;3.53;;;2.40;;
23802;SDS011;12082;51.786;6.018;2024-02-16T06:20:45;3.53;;;2.63;;
23802;SDS011;12082;51.786;6.018;2024-02-16T06:23:11;5.20;;;2.30;;
23802;SDS011;12082;51.786;6.018;2024-02-16T06:25:37;6.30;;;3.10;;
23802;SDS011;12082;51.786;6.018;2024-02-16T06:28:03;6.83;;;2.73;;
23802;SDS011;12082;51.786;6.018;2024-02-16T06:30:29;7.10;;;2.53;;
23802;SDS011;12082;51.786;6.018;2024-02-16T06:32:55;5.63;;;2.83;;
23802;SDS011;12082;51.786;6.018;2024-02-16T06:35:21;6.03;;;3.20;;
23802;SDS011;12082;51.786;6.018;2024-02-16T06:37:46;6.63;;;2.97;;
23802;SDS011;12082;51.786;6.018;2024-02-16T06:40:12;5.17;;;2.93;;
23802;SDS011;12082;51.786;6.018;2024-02-16T06:42:38;5.00;;;3.00;;
23802;SDS011;12082;51.786;6.018;2024-02-16T06:45:03;3.80;;;2.70;;
23802;SDS011;12082;51.786;6.018;2024-02-16T06:47:30;5.83;;;3.10;;
23802;SDS011;12082;51.786;6.018;2024-02-16T06:49:59;4.60;;;2.87;;
23802;SDS011;12082;51.786;6.018;2024-02-16T06:52:24;5.37;;;2.87;;
23802;SDS011;12082;51.786;6.018;2024-02-16T06:54:50;3.50;;;2.63;;
23802;SDS011;12082;51.786;6.018;2024-02-16T06:57:16;3.43;;;2.67;;
23802;SDS011;12082;51.786;6.018;2024-02-16T06:59:42;6.27;;;2.73;;
23802;SDS011;12082;51.786;6.018;2024-02-16T07:02:08;4.43;;;2.53;;
23802;SDS011;12082;51.786;6.018;2024-02-16T07:04:35;6.57;;;2.87;;
23802;SDS011;12082;51.786;6.018;2024-02-16T07:07:01;5.00;;;2.80;;
23802;SDS011;12082;51.786;6.018;2024-02-16T07:09:27;6.40;;;2.70;;
23802;SDS011;12082;51.786;6.018;2024-02-16T07:11:52;5.03;;;2.83;;
23802;SDS011;12082;51.786;6.018;2024-02-16T07:14:18;3.77;;;2.87;;
23802;SDS011;12082;51.786;6.018;2024-02-16T07:16:43;4.10;;;2.90;;
23802;SDS011;12082;51.786;6.018;2024-02-16T07:19:09;5.93;;;2.83;;
23802;SDS011;12082;51.786;6.018;2024-02-16T07:21:35;7.73;;;3.33;;
23802;SDS011;12082;51.786;6.018;2024-02-16T07:24:00;8.10;;;2.97;;
23802;SDS011;12082;51.786;6.018;2024-02-16T07:26:27;6.97;;;3.67;;
23802;SDS011;12082;51.786;6.018;2024-02-16T07:28:52;3.63;;;3.00;;
23802;SDS011;12082;51.786;6.018;2024-02-16T07:31:18;9.87;;;3.57;;
23802;SDS011;12082;51.786;6.018;2024-02-16T07:33:43;4.33;;;2.83;;
23802;SDS011;12082;51.786;6.018;2024-02-16T07:36:09;8.50;;;3.40;;
23802;SDS011;12082;51.786;6.018;2024-02-16T07:38:35;7.60;;;3.33;;
23802;SDS011;12082;51.786;6.018;2024-02-16T07:41:00;3.77;;;3.10;;
23802;SDS011;12082;51.786;6.018;2024-02-16T07:43:27;5.10;;;3.50;;
23802;SDS011;12082;51.786;6.018;2024-02-16T07:45:53;5.17;;;3.17;;
23802;SDS011;12082;51.786;6.018;2024-02-16T07:48:19;4.87;;;3.17;;
23802;SDS011;12082;51.786;6.018;2024-02-16T07:50:46;6.40;;;3.50;;
23802;SDS011;12082;51.786;6.018;2024-02-16T07:53:12;7.03;;;3.63;;
23802;SDS011;12082;51.786;6.018;2024-02-16T07:55:37;5.47;;;3.67;;
23802;SDS011;12082;51.786;6.018;2024-02-16T07:58:03;4.83;;;3.50;;
23802;SDS011;12082;51.786;6.018;2024-02-16T08:00:29;7.07;;;3.27;;
23802;SDS011;12082;51.786;6.018;2024-02-16T08:02:54;7.93;;;3.30;;
23802;SDS011;12082;51.786;6.018;2024-02-16T08:05:20;7.03;;;3.33;;
23802;SDS011;12082;51.786;6.018;2024-02-16T08:07:47;6.90;;;3.00;;
23802;SDS011;12082;51.786;6.018;2024-02-16T08:10:13;7.10;;;3.20;;
23802;SDS011;12082;51.786;6.018;2024-02-16T08:12:39;6.87;;;3.23;;
23802;SDS011;12082;51.786;6.018;2024-02-16T08:15:05;7.43;;;3.13;;
23802;SDS011;12082;51.786;6.018;2024-02-16T08:17:36;5.40;;;4.00;;
23802;SDS011;12082;51.786;6.018;2024-02-16T08:20:02;6.83;;;3.57;;
23802;SDS011;12082;51.786;6.018;2024-02-16T08:22:28;5.93;;;3.30;;
23802;SDS011;12082;51.786;6.018;2024-02-16T08:24:54;6.17;;;3.90;;
23802;SDS011;12082;51.786;6.018;2024-02-16T08:27:20;6.63;;;3.07;;
23802;SDS011;12082;51.786;6.018;2024-02-16T08:29:46;4.23;;;3.07;;
23802;SDS011;12082;51.786;6.018;2024-02-16T08:32:11;5.23;;;3.20;;
23802;SDS011;12082;51.786;6.018;2024-02-16T08:34:37;9.30;;;3.27;;
23802;SDS011;12082;51.786;6.018;2024-02-16T08:37:03;5.83;;;3.27;;
23802;SDS011;12082;51.786;6.018;2024-02-16T08:39:30;7.97;;;3.90;;
23802;SDS011;12082;51.786;6.018;2024-02-16T08:41:56;6.83;;;3.50;;
23802;SDS011;12082;51.786;6.018;2024-02-16T08:44:23;4.77;;;2.80;;
23802;SDS011;12082;51.786;6.018;2024-02-16T08:46:49;5.30;;;3.47;;
23802;SDS011;12082;51.786;6.018;2024-02-16T08:49:15;4.10;;;3.00;;
23802;SDS011;12082;51.786;6.018;2024-02-16T08:51:41;9.80;;;3.37;;
23802;SDS011;12082;51.786;6.018;2024-02-16T08:54:07;5.40;;;3.10;;
23802;SDS011;12082;51.786;6.018;2024-02-16T08:56:33;7.17;;;3.50;;
23802;SDS011;12082;51.786;6.018;2024-02-16T08:59:01;7.53;;;3.23;;
23802;SDS011;12082;51.786;6.018;2024-02-16T09:01:37;8.80;;;3.80;;
23802;SDS011;12082;51.786;6.018;2024-02-16T09:04:04;10.83;;;3.47;;
23802;SDS011;12082;51.786;6.018;2024-02-16T09:06:30;4.50;;;3.40;;
23802;SDS011;12082;51.786;6.018;2024-02-16T09:08:56;4.57;;;3.17;;
23802;SDS011;12082;51.786;6.018;2024-02-16T09:11:22;6.17;;;3.80;;
23802;SDS011;12082;51.786;6.018;2024-02-16T09:13:48;6.17;;;4.30;;
23802;SDS011;12082;51.786;6.018;2024-02-16T09:16:14;7.17;;;4.30;;
23802;SDS011;12082;51.786;6.018;2024-02-16T09:18:40;8.03;;;3.53;;
23802;SDS011;12082;51.786;6.018;2024-02-16T09:21:06;6.73;;;3.77;;
23802;SDS011;12082;51.786;6.018;2024-02-16T09:23:32;6.67;;;3.60;;
23802;SDS011;12082;51.786;6.018;2024-02-16T09:25:58;6.27;;;3.67;;
23802;SDS011;12082;51.786;6.018;2024-02-16T09:28:27;6.23;;;4.10;;
23802;SDS011;12082;51.786;6.018;2024-02-16T09:30:54;8.80;;;3.60;;
23802;SDS011;12082;51.786;6.018;2024-02-16T09:33:20;5.73;;;3.63;;
23802;SDS011;12082;51.786;6.018;2024-02-16T09:35:48;5.73;;;3.53;;
23802;SDS011;12082;51.786;6.018;2024-02-16T09:38:14;6.80;;;3.90;;
23802;SDS011;12082;51.786;6.018;2024-02-16T09:40:39;4.40;;;3.43;;
23802;SDS011;12082;51.786;6.018;2024-02-16T09:43:05;7.40;;;4.13;;
23802;SDS011;12082;51.786;6.018;2024-02-16T09:45:31;9.37;;;3.97;;
23802;SDS011;12082;51.786;6.018;2024-02-16T09:47:58;6.60;;;3.90;;
23802;SDS011;12082;51.786;6.018;2024-02-16T09:50:24;7.30;;;3.60;;
23802;SDS011;12082;51.786;6.018;2024-02-16T09:52:51;7.83;;;3.80;;
23802;SDS011;12082;51.786;6.018;2024-02-16T09:55:19;7.67;;;3.73;;
23802;SDS011;12082;51.786;6.018;2024-02-16T09:57:44;7.53;;;3.47;;
23802;SDS011;12082;51.786;6.018;2024-02-16T10:00:10;7.60;;;3.57;;
23802;SDS011;12082;51.786;6.018;2024-02-16T10:02:45;9.73;;;4.07;;
23802;SDS011;12082;51.786;6.018;2024-02-16T10:05:13;5.17;;;3.50;;
23802;SDS011;12082;51.786;6.018;2024-02-16T10:07:40;6.17;;;3.87;;
23802;SDS011;12082;51.786;6.018;2024-02-16T10:10:07;11.10;;;4.60;;
23802;SDS011;12082;51.786;6.018;2024-02-16T10:13:04;5.67;;;3.13;;
23802;SDS011;12082;51.786;6.018;2024-02-16T10:15:31;6.03;;;3.30;;
23802;SDS011;12082;51.786;6.018;2024-02-16T10:18:04;9.27;;;4.30;;
23802;SDS011;12082;51.786;6.018;2024-02-16T10:20:31;7.00;;;3.80;;
23802;SDS011;12082;51.786;6.018;2024-02-16T10:23:10;7.43;;;3.90;;
23802;SDS011;12082;51.786;6.018;2024-02-16T10:25:37;10.00;;;3.50;;
23802;SDS011;12082;51.786;6.018;2024-02-16T10:28:06;9.87;;;4.97;;
23802;SDS011;12082;51.786;6.018;2024-02-16T10:30:37;7.50;;;4.47;;
23802;SDS011;12082;51.786;6.018;2024-02-16T10:33:06;11.13;;;4.07;;
23802;SDS011;12082;51.786;6.018;2024-02-16T10:35:34;12.80;;;4.63;;
23802;SDS011;12082;51.786;6.018;2024-02-16T10:38:04;10.50;;;4.80;;
23802;SDS011;12082;51.786;6.018;2024-02-16T10:40:34;10.73;;;4.73;;
23802;SDS011;12082;51.786;6.018;2024-02-16T10:43:06;10.40;;;5.17;;
23802;SDS011;12082;51.786;6.018;2024-02-16T10:45:34;7.47;;;4.33;;
23802;SDS011;12082;51.786;6.018;2024-02-16T10:48:04;10.53;;;4.70;;
23802;SDS011;12082;51.786;6.018;2024-02-16T10:50:31;10.40;;;5.90;;
23802;SDS011;12082;51.786;6.018;2024-02-16T10:53:00;9.13;;;5.80;;
23802;SDS011;12082;51.786;6.018;2024-02-16T10:55:30;11.80;;;5.70;;
23802;SDS011;12082;51.786;6.018;2024-02-16T10:57:56;12.93;;;6.47;;
23802;SDS011;12082;51.786;6.018;2024-02-16T11:00:24;9.73;;;5.90;;
23802;SDS011;12082;51.786;6.018;2024-02-16T11:02:53;15.97;;;6.33;;
23802;SDS011;12082;51.786;6.018;2024-02-16T11:05:36;10.37;;;6.17;;
23802;SDS011;12082;51.786;6.018;2024-02-16T11:08:15;13.13;;;5.90;;
23802;SDS011;12082;51.786;6.018;2024-02-16T11:10:55;10.80;;;5.70;;
23802;SDS011;12082;51.786;6.018;2024-02-16T11:13:25;9.53;;;5.57;;
23802;SDS011;12082;51.786;6.018;2024-02-16T11:15:58;13.77;;;6.40;;
23802;SDS011;12082;51.786;6.018;2024-02-16T11:18:30;11.87;;;6.73;;
23802;SDS011;12082;51.786;6.018;2024-02-16T11:21:03;10.33;;;5.47;;
23802;SDS011;12082;51.786;6.018;2024-02-16T11:23:29;11.30;;;5.83;;
23802;SDS011;12082;51.786;6.018;2024-02-16T11:26:05;12.63;;;6.50;;
23802;SDS011;12082;51.786;6.018;2024-02-16T11:28:36;10.47;;;6.63;;
23802;SDS011;12082;51.786;6.018;2024-02-16T11:31:03;14.83;;;6.00;;
23802;SDS011;12082;51.786;6.018;2024-02-16T11:33:29;13.40;;;6.63;;
23802;SDS011;12082;51.786;6.018;2024-02-16T11:35:56;9.77;;;6.33;;
23802;SDS011;12082;51.786;6.018;2024-02-16T11:38:26;13.23;;;7.47;;
23802;SDS011;12082;51.786;6.018;2024-02-16T11:40:52;14.17;;;6.80;;
23802;SDS011;12082;51.786;6.018;2024-02-16T11:43:22;17.13;;;7.53;;
23802;SDS011;12082;51.786;6.018;2024-02-16T11:45:49;15.33;;;7.00;;
23802;SDS011;12082;51.786;6.018;2024-02-16T11:48:25;14.33;;;7.83;;
23802;SDS011;12082;51.786;6.018;2024-02-16T11:50:59;13.33;;;7.17;;
23802;SDS011;12082;51.786;6.018;2024-02-16T11:53:25;11.30;;;7.20;;
23802;SDS011;12082;51.786;6.018;2024-02-16T11:55:51;11.73;;;7.63;;
23802;SDS011;12082;51.786;6.018;2024-02-16T11:58:17;12.80;;;7.13;;
23802;SDS011;12082;51.786;6.018;2024-02-16T12:00:46;13.43;;;7.40;;
23802;SDS011;12082;51.786;6.018;2024-02-16T12:03:19;12.37;;;6.93;;
23802;SDS011;12082;51.786;6.018;2024-02-16T12:08:20;15.73;;;8.33;;
23802;SDS011;12082;51.786;6.018;2024-02-16T12:10:47;12.37;;;7.60;;
23802;SDS011;12082;51.786;6.018;2024-02-16T12:13:15;18.57;;;8.47;;
23802;SDS011;12082;51.786;6.018;2024-02-16T12:15:42;12.93;;;8.27;;
23802;SDS011;12082;51.786;6.018;2024-02-16T12:18:21;14.03;;;8.03;;
23802;SDS011;12082;51.786;6.018;2024-02-16T12:20:57;21.43;;;13.47;;
23802;SDS011;12082;51.786;6.018;2024-02-16T12:23:23;27.27;;;15.20;;
23802;SDS011;12082;51.786;6.018;2024-02-16T12:25:49;16.17;;;10.50;;
23802;SDS011;12082;51.786;6.018;2024-02-16T12:28:14;16.33;;;10.30;;
23802;SDS011;12082;51.786;6.018;2024-02-16T12:30:40;16.20;;;10.50;;
23802;SDS011;12082;51.786;6.018;2024-02-16T12:33:06;15.33;;;10.17;;
23802;SDS011;12082;51.786;6.018;2024-02-16T12:35:31;17.13;;;10.23;;
23802;SDS011;12082;51.786;6.018;2024-02-16T12:37:57;16.77;;;10.30;;
23802;SDS011;12082;51.786;6.018;2024-02-16T12:40:22;15.57;;;9.90;;
23802;SDS011;12082;51.786;6.018;2024-02-16T12:42:48;19.70;;;10.63;;
23802;SDS011;12082;51.786;6.018;2024-02-16T12:45:14;14.67;;;10.67;;
23802;SDS011;12082;51.786;6.018;2024-02-16T12:47:41;16.87;;;11.87;;
23802;SDS011;12082;51.786;6.018;2024-02-16T12:50:07;12.67;;;9.60;;
23802;SDS011;12082;51.786;6.018;2024-02-16T12:52:33;14.30;;;10.20;;
23802;SDS011;12082;51.786;6.018;2024-02-16T12:55:00;13.63;;;9.97;;
23802;SDS011;12082;51.786;6.018;2024-02-16T12:57:26;12.27;;;9.13;;
23802;SDS011;12082;51.786;6.018;2024-02-16T12:59:53;14.70;;;10.10;;
23802;SDS011;12082;51.786;6.018;2024-02-16T13:02:19;14.57;;;10.10;;
23802;SDS011;12082;51.786;6.018;2024-02-16T13:04:45;17.07;;;10.70;;
23802;SDS011;12082;51.786;6.018;2024-02-16T13:07:10;14.20;;;10.23;;
23802;SDS011;12082;51.786;6.018;2024-02-16T13:09:36;15.67;;;10.57;;
23802;SDS011;12082;51.786;6.018;2024-02-16T13:12:02;13.77;;;9.57;;
23802;SDS011;12082;51.786;6.018;2024-02-16T13:14:28;17.70;;;11.20;;
23802;SDS011;12082;51.786;6.018;2024-02-16T13:16:53;16.90;;;10.47;;
23802;SDS011;12082;51.786;6.018;2024-02-16T13:19:19;16.30;;;10.10;;
23802;SDS011;12082;51.786;6.018;2024-02-16T13:21:44;10.70;;;9.30;;
23802;SDS011;12082;51.786;6.018;2024-02-16T13:24:10;13.93;;;10.27;;
23802;SDS011;12082;51.786;6.018;2024-02-16T13:26:36;14.53;;;10.03;;
23802;SDS011;12082;51.786;6.018;2024-02-16T13:29:01;12.13;;;9.27;;
23802;SDS011;12082;51.786;6.018;2024-02-16T13:31:27;12.13;;;8.97;;
23802;SDS011;12082;51.786;6.018;2024-02-16T13:33:54;12.50;;;9.10;;
23802;SDS011;12082;51.786;6.018;2024-02-16T13:36:19;9.83;;;7.93;;
23802;SDS011;12082;51.786;6.018;2024-02-16T13:38:45;10.87;;;8.00;;
23802;SDS011;12082;51.786;6.018;2024-02-16T13:41:10;12.63;;;8.97;;
23802;SDS011;12082;51.786;6.018;2024-02-16T13:43:36;10.37;;;8.50;;
23802;SDS011;12082;51.786;6.018;2024-02-16T13:46:02;11.93;;;8.87;;
23802;SDS011;12082;51.786;6.018;2024-02-16T13:48:28;14.60;;;9.67;;
23802;SDS011;12082;51.786;6.018;2024-02-16T13:50:55;14.60;;;10.10;;
23802;SDS011;12082;51.786;6.018;2024-02-16T13:53:21;15.67;;;11.73;;
23802;SDS011;12082;51.786;6.018;2024-02-16T13:55:48;19.47;;;12.80;;
23802;SDS011;12082;51.786;6.018;2024-02-16T13:58:14;16.93;;;11.50;;
23802;SDS011;12082;51.786;6.018;2024-02-16T14:00:40;21.03;;;11.80;;
23802;SDS011;12082;51.786;6.018;2024-02-16T14:03:09;19.90;;;12.57;;
23802;SDS011;12082;51.786;6.018;2024-02-16T14:05:37;20.23;;;13.73;;
23802;SDS011;12082;51.786;6.018;2024-02-16T14:08:03;17.83;;;11.90;;
23802;SDS011;12082;51.786;6.018;2024-02-16T14:10:30;20.30;;;12.47;;
23802;SDS011;12082;51.786;6.018;2024-02-16T14:12:57;19.63;;;12.80;;
23802;SDS011;12082;51.786;6.018;2024-02-16T14:15:23;18.93;;;11.90;;
23802;SDS011;12082;51.786;6.018;2024-02-16T14:17:48;17.30;;;11.43;;
23802;SDS011;12082;51.786;6.018;2024-02-16T14:20:14;17.80;;;12.23;;
23802;SDS011;12082;51.786;6.018;2024-02-16T14:22:40;16.10;;;10.67;;
23802;SDS011;12082;51.786;6.018;2024-02-16T14:25:06;18.93;;;12.00;;
23802;SDS011;12082;51.786;6.018;2024-02-16T14:27:31;18.23;;;10.83;;
23802;SDS011;12082;51.786;6.018;2024-02-16T14:29:57;20.07;;;11.97;;
23802;SDS011;12082;51.786;6.018;2024-02-16T14:32:23;17.17;;;11.27;;
23802;SDS011;12082;51.786;6.018;2024-02-16T14:34:48;15.63;;;10.70;;
23802;SDS011;12082;51.786;6.018;2024-02-16T14:37:14;12.83;;;8.93;;
23802;SDS011;12082;51.786;6.018;2024-02-16T14:39:40;17.03;;;10.83;;
23802;SDS011;12082;51.786;6.018;2024-02-16T14:42:05;13.67;;;9.07;;